createdAt,value
2023-05-03T00:01:58.112Z,1.0
2023-05-03T00:06:57.744Z,1.2
2023-05-03T00:11:57.347Z,1.1
2023-05-03T00:16:57.088Z,1.3
2023-05-03T00:21:56.578Z,1.1
2023-05-03T00:31:55.836Z,0.8
2023-05-03T00:36:55.441Z,0.9
2023-05-03T00:46:54.805Z,0.8
2023-05-03T00:51:54.356Z,1.0
2023-05-03T00:56:56.521Z,1.6
2023-05-03T01:01:53.677Z,1.0
2023-05-03T01:06:55.273Z,1.3
2023-05-03T01:11:52.811Z,0.9
2023-05-03T01:21:52.094Z,1.3
2023-05-03T01:26:51.763Z,1.0
2023-05-03T01:36:50.994Z,1.3
2023-05-03T01:41:50.622Z,0.9
2023-05-03T01:46:50.295Z,1.1
2023-05-03T01:51:49.816Z,1.2
2023-05-03T01:56:49.499Z,1.4
2023-05-03T02:01:49.184Z,1.1
2023-05-03T02:06:48.887Z,0.8
2023-05-03T02:11:48.374Z,1.1
2023-05-03T02:16:47.981Z,0.9
2023-05-03T02:21:47.486Z,1.6
2023-05-03T02:26:47.062Z,1.2
2023-05-03T02:36:48.761Z,1.4
2023-05-03T02:41:45.792Z,0.9
2023-05-03T02:46:45.424Z,1.1
2023-05-03T02:51:44.904Z,1.4
2023-05-03T02:56:44.526Z,1.2
2023-05-03T03:01:44.112Z,1.9
2023-05-03T03:06:43.649Z,1.1
2023-05-03T03:11:43.045Z,1.2
2023-05-03T03:16:44.570Z,1.5
2023-05-03T03:21:42.031Z,1.8
2023-05-03T03:26:43.572Z,1.5
2023-05-03T03:31:41.040Z,1.7
2023-05-03T03:36:40.613Z,1.2
2023-05-03T03:41:40.019Z,1.7
2023-05-03T03:46:42.039Z,1.5
2023-05-03T03:51:39.096Z,1.4
2023-05-03T03:56:40.638Z,1.3
2023-05-03T04:01:38.229Z,1.7
2023-05-03T04:06:37.713Z,1.5
2023-05-03T04:11:37.057Z,1.3
2023-05-03T04:16:36.579Z,1.7
2023-05-03T04:21:36.053Z,1.1
2023-05-03T04:26:35.552Z,1.8
2023-05-03T04:31:35.046Z,1.1
2023-05-03T04:36:34.572Z,1.5
2023-05-03T04:41:33.987Z,1.2
2023-05-03T04:51:33.084Z,2.0
2023-05-03T04:56:32.411Z,1.1
2023-05-03T05:01:31.882Z,1.2
2023-05-03T05:06:31.360Z,1.3
2023-05-03T05:11:30.726Z,1.5
2023-05-03T05:26:29.107Z,1.1
2023-05-03T05:36:28.051Z,1.3
2023-05-03T05:41:27.493Z,1.4
2023-05-03T05:46:27.155Z,1.2
2023-05-03T05:51:26.553Z,1.3
2023-05-03T05:56:26.104Z,1.1
2023-05-03T06:06:27.530Z,1.2
2023-05-03T06:11:24.547Z,1.4
2023-05-03T06:16:24.293Z,1.2
2023-05-03T06:21:23.621Z,1.1
2023-05-03T06:26:23.168Z,1.4
2023-05-03T06:31:22.719Z,1.3
2023-05-03T06:36:24.198Z,1.6
2023-05-03T06:41:21.758Z,1.3
2023-05-03T06:46:22.323Z,1.4
2023-05-03T06:51:20.805Z,1.5
2023-05-03T06:56:20.443Z,1.7
2023-05-03T07:01:20.121Z,1.6
2023-05-03T07:06:19.632Z,1.7
2023-05-03T07:11:19.208Z,2.8
2023-05-03T07:16:18.884Z,1.9
2023-05-03T07:21:18.446Z,2.0
2023-05-03T07:26:18.099Z,2.2
2023-05-03T07:31:17.697Z,2.0
2023-05-03T07:36:17.373Z,1.8
2023-05-03T07:41:17.035Z,2.0
2023-05-03T07:51:16.412Z,1.9
2023-05-03T07:56:16.121Z,2.2
2023-05-03T08:01:15.829Z,2.5
2023-05-03T08:06:15.481Z,2.0
2023-05-03T08:11:15.163Z,1.6
2023-05-03T08:21:16.990Z,2.5
2023-05-03T08:26:14.383Z,2.1
2023-05-03T08:31:13.939Z,1.5
2023-05-03T08:36:14.948Z,1.9
2023-05-03T08:41:13.296Z,1.8
2023-05-03T08:46:13.090Z,1.4
2023-05-03T08:51:12.871Z,1.7
2023-05-03T08:56:12.779Z,1.3
2023-05-03T09:06:12.572Z,1.6
2023-05-03T09:11:12.098Z,1.2
2023-05-03T09:16:12.019Z,1.9
2023-05-03T09:21:11.770Z,1.4
2023-05-03T09:26:11.669Z,1.3
2023-05-03T09:36:11.416Z,1.4
2023-05-03T09:46:11.258Z,1.3
2023-05-03T09:51:11.050Z,1.8
2023-05-03T09:56:10.925Z,1.4
2023-05-03T10:11:10.676Z,1.5
2023-05-03T10:21:10.545Z,1.3
2023-05-03T10:26:10.500Z,1.5
2023-05-03T10:31:10.568Z,2.0
2023-05-03T10:36:10.705Z,1.4
2023-05-03T10:41:10.486Z,2.1
2023-05-03T10:46:10.478Z,1.6
2023-05-03T11:01:10.372Z,1.8
2023-05-03T11:11:10.431Z,1.6
2023-05-03T11:16:10.523Z,1.3
2023-05-03T11:21:10.517Z,1.8
2023-05-03T11:26:10.494Z,1.9
2023-05-03T11:31:10.565Z,1.8
2023-05-03T11:36:10.655Z,1.5
2023-05-03T11:41:10.720Z,1.7
2023-05-03T11:46:10.901Z,2.0
2023-05-03T11:51:10.910Z,2.4
2023-05-03T11:56:10.994Z,1.9
2023-05-03T12:01:11.104Z,1.7
2023-05-03T12:06:11.943Z,1.9
2023-05-03T12:11:12.374Z,1.4
2023-05-03T12:16:13.802Z,1.8
2023-05-03T12:36:14.609Z,1.9
2023-05-03T12:41:14.542Z,2.4
2023-05-03T12:46:32.872Z,1.5
2023-05-03T12:51:18.316Z,1.7
2023-05-03T13:02:02.609Z,2.1
2023-05-03T13:06:14.924Z,1.7
2023-05-03T13:16:14.070Z,2.0
2023-05-03T13:21:14.320Z,1.8
2023-05-03T13:41:15.846Z,2.1
2023-05-03T13:46:16.318Z,1.9
2023-05-03T13:51:16.780Z,1.5
2023-05-03T13:56:17.149Z,1.7
2023-05-03T14:01:17.599Z,1.6
2023-05-03T14:06:18.008Z,2.8
2023-05-03T14:11:18.436Z,2.0
2023-05-03T14:16:27.600Z,2.1
2023-05-03T14:21:19.314Z,2.0
2023-05-03T14:31:20.138Z,1.9
2023-05-03T14:46:21.464Z,2.1
2023-05-03T14:51:21.719Z,1.6
2023-05-03T14:56:22.242Z,1.9
2023-05-03T15:01:22.715Z,2.1
2023-05-03T15:06:22.955Z,1.6
2023-05-03T15:11:23.301Z,1.8
2023-05-03T15:16:23.724Z,2.1
2023-05-03T15:21:23.967Z,2.2
2023-05-03T15:26:24.308Z,1.8
2023-05-03T15:31:26.979Z,2.1
2023-05-03T15:36:24.697Z,2.0
2023-05-03T15:41:24.888Z,1.8
2023-05-03T15:46:25.383Z,2.4
2023-05-03T15:51:25.291Z,2.3
2023-05-03T16:01:25.918Z,2.6
2023-05-03T16:06:25.878Z,2.5
2023-05-03T16:11:25.903Z,2.6
2023-05-03T16:16:26.040Z,2.8
2023-05-03T16:21:28.068Z,2.1
2023-05-03T16:26:26.124Z,2.7
2023-05-03T16:31:26.162Z,2.9
2023-05-03T16:36:26.261Z,2.3
2023-05-03T16:46:26.514Z,2.5
2023-05-03T16:51:28.475Z,2.9
2023-05-03T16:56:26.393Z,2.5
2023-05-03T17:01:26.525Z,2.8
2023-05-03T17:06:26.354Z,2.7
2023-05-03T17:11:26.438Z,2.9
2023-05-03T17:21:26.432Z,2.8
2023-05-03T17:26:26.244Z,2.7
2023-05-03T17:31:26.373Z,2.6
2023-05-03T17:36:26.061Z,2.7
2023-05-03T17:41:25.967Z,3.0
2023-05-03T17:46:25.950Z,2.7
2023-05-03T17:51:25.748Z,2.9
2023-05-03T17:56:25.629Z,3.0
2023-05-03T18:01:25.810Z,2.5
2023-05-03T18:11:25.390Z,2.6
2023-05-03T18:16:26.511Z,2.3
2023-05-03T18:21:25.109Z,2.7
2023-05-03T18:26:24.944Z,2.3
2023-05-03T18:36:24.625Z,2.0
2023-05-03T18:41:24.452Z,2.3
2023-05-03T18:46:24.424Z,1.9
2023-05-03T18:56:26.435Z,1.8
2023-05-03T19:01:23.790Z,1.9
2023-05-03T19:06:23.533Z,1.7
2023-05-03T19:11:24.581Z,2.0
2023-05-03T19:16:23.106Z,1.2
2023-05-03T19:21:22.928Z,2.1
2023-05-03T19:26:22.676Z,3.5
2023-05-03T19:31:22.457Z,7.6
2023-05-03T19:36:22.264Z,6.9
2023-05-03T19:41:22.064Z,7.8
2023-05-03T19:46:21.836Z,13.9
2023-05-03T19:51:21.521Z,13.0
2023-05-03T19:56:21.338Z,30.5
2023-05-03T20:01:21.135Z,20.0
2023-05-03T20:06:20.839Z,24.8
2023-05-03T20:11:20.558Z,17.4
2023-05-03T20:21:20.047Z,25.9
2023-05-03T20:26:19.934Z,31.5
2023-05-03T20:31:19.464Z,64.5
2023-05-03T20:36:19.247Z,53.4
2023-05-03T20:41:18.772Z,116.4
2023-05-03T20:46:18.493Z,11.9
2023-05-03T20:51:18.100Z,4.5
2023-05-03T20:56:17.800Z,9.9
2023-05-03T21:01:17.494Z,10.3
2023-05-03T21:06:17.221Z,6.2
2023-05-03T21:11:16.915Z,3.0
2023-05-03T21:16:16.657Z,2.2
2023-05-03T21:21:16.289Z,4.7
2023-05-03T21:26:15.958Z,1.4
2023-05-03T21:31:15.683Z,3.8
2023-05-03T21:36:15.371Z,1.5
2023-05-03T21:41:15.124Z,2.8
2023-05-03T21:46:14.742Z,3.1
2023-05-03T21:51:14.431Z,3.3
2023-05-03T21:56:14.021Z,2.8
2023-05-03T22:01:13.701Z,1.9
2023-05-03T22:06:13.345Z,2.5
2023-05-03T22:11:13.014Z,2.4
2023-05-03T22:21:12.315Z,2.9
2023-05-03T22:26:11.991Z,3.1
2023-05-03T22:31:11.594Z,2.9
2023-05-03T22:36:11.216Z,2.7
2023-05-03T22:41:11.003Z,2.1
2023-05-03T22:46:10.512Z,2.8
2023-05-03T22:51:10.162Z,2.3
2023-05-03T22:56:09.706Z,2.4
2023-05-03T23:01:09.433Z,2.6
2023-05-03T23:06:08.895Z,2.9
2023-05-03T23:11:08.524Z,3.5
2023-05-03T23:16:08.242Z,2.7
2023-05-03T23:21:07.657Z,2.6
2023-05-03T23:26:07.181Z,2.5
2023-05-03T23:51:05.092Z,2.9
2023-05-03T23:56:04.469Z,2.2
